Main page
METAR-TAF:

METAR-TAF

Airports :

Nakhchivan International Airport

Nakhchivan, Azerbaijan

latitude: 39-11-19N, longitude: 045-27-30E, elevation: 873 m

Current weather observation

The report was made 37 minutes ago, at 03:30 UTC
Wind 8 kt from the North/Northeast
Temperature -7°C
Humidity 79%
Pressure 1026 hPa
Visibility 10 km or more
Scattered clouds at a height of 10000 ft

METAR: UBBN 270330Z 03008KT 9999 SCT100 M07/M10 Q1026 R14R/CLRD// NOSIG RMK MT OP QFE694

Time: 08:07 (04:07 UTC)

Forecast

The report was made 5 hours and 6 minutes ago, at 23:01 UTC
Forecast valid from 27 at 00 UTC to 27 at 24 UTC
Wind 4 kt from variable directions
Visibility: 8000 m
Few clouds at a height of 5000 ft
Scattered clouds at a height of 10000 ft
Temporary
from 27 at 00 UTC to 27 at 06 UTC
Wind 8 kt from the North/Northeast
Temporary
from 27 at 06 UTC to 27 at 14 UTC
Wind 8 kt from the West/Southwest

TAF: UBBN 262301Z 2700/2724 VRB04KT 8000 FEW050 SCT100 TX03/2712Z TNM09/2703Z TEMPO 2700/2706 02008KT TEMPO 2706/2714 25008KT

Weather observations and forecasts of more than 4000 airports (METAR and TAF reports).

The available stations are represented by yellow and red dots on the map.

Hover mouse over dot to see the name of the station.

Then click to see weather observations and forecasts.

To change the map : click on the green buttons with a black cross to zoom in, on the green button with a dash to zoom out, or on the green arrows for adjacent maps.


METAR-TAF: